Data for 08/01/2016

Time Sea-Level Adjusted Pressure Absolute Pressure Temperature Relative Humidity Dew Point   
(mb) (inHg) (mb) (inHg) (C) (F) (%) (C) (F)
00:05 1018 30.06 847 25.01 15.3 59.5 31 -1.6 29.2
00:10 1018 30.06 847 25.01 15.1 59.3 28 -3.3 26.1
00:15 1018 30.06 847 25.01 15.2 59.3 28 -2.9 26.8
00:20 1018 30.06 847 25.01 14.9 58.9 29 -2.9 26.9
00:25 1018 30.06 847 25.01 14.7 58.4 31 -2.3 27.8
00:30 1018 30.06 848 25.04 14.4 57.9 30 -2.9 26.8
00:35 1018 30.06 848 25.04 15 59 26 -4.4 24
00:40 1018 30.06 848 25.04 15.6 60.1 24 -4.8 23.4
00:45 1018 30.06 848 25.04 15.8 60.5 25 -4.2 24.4
00:50 1018 30.06 848 25.04 15.7 60.2 24 -4.9 23.2
00:55 1019 30.09 848 25.04 15.8 60.5 26 -3.4 25.9
01:00 1019 30.09 848 25.04 16.1 60.9 25 -3.8 25.2
01:05 1019 30.09 848 25.04 15.6 60.1 25 -4.3 24.3
01:10 1019 30.09 848 25.04 15.5 59.9 25 -4.5 23.8
01:15 1019 30.09 848 25.04 15.5 59.9 25 -4.5 23.9
01:20 1019 30.09 848 25.04 15.5 59.9 27 -3.1 26.3
01:25 1019 30.09 848 25.04 15.2 59.4 25 -4.4 24.1
01:30 1019 30.09 848 25.04 15.1 59.3 26 -4.1 24.7
01:35 1019 30.09 848 25.04 14.9 58.9 26 -4.2 24.4
01:40 1019 30.09 848 25.04 14.4 58 28 -3.8 25.2
01:45 1019 30.09 848 25.04 14.1 57.3 28 -4 24.8
01:50 1019 30.09 848 25.04 14 57.3 27 -4.4 24
01:55 1019 30.09 848 25.04 14.1 57.3 29 -3.8 25.2
02:00 1019 30.09 848 25.04 13.9 57.1 28 -4.3 24.3
02:05 1019 30.09 848 25.04 13.9 57 29 -3.8 25.2
02:10 1019 30.09 848 25.04 13.7 56.6 29 -3.9 25
02:15 1019 30.09 848 25.04 13.5 56.3 30 -3.7 25.3
02:20 1019 30.09 848 25.04 13.3 55.9 31 -3.4 25.8
02:25 1019 30.09 848 25.04 13 55.4 32 -3.4 25.9
02:30 1019 30.09 848 25.04 12.8 55 31 -3.7 25.3
02:35 1019 30.09 848 25.04 12.8 55 32 -3.5 25.8
02:40 1019 30.09 848 25.04 12.7 54.8 32 -3.6 25.5
02:45 1019 30.09 848 25.04 12.7 54.9 31 -3.8 25.1
02:50 1019 30.09 848 25.04 12.9 55.3 30 -4 24.8
02:55 1019 30.09 848 25.04 13.1 55.6 31 -3.7 25.3
03:00 1019 30.09 848 25.04 12.9 55.2 31 -3.6 25.6
03:05 1019 30.09 848 25.04 12.7 54.9 32 -3.6 25.6
03:10 1019 30.09 849 25.07 12.5 54.4 33 -3.2 26.2
03:15 1019 30.09 849 25.07 12.2 53.9 33 -3.4 25.8
03:20 1019 30.09 849 25.07 12 53.5 33 -3.6 25.6
03:25 1019 30.09 849 25.07 12 53.6 33 -3.9 25
03:30 1019 30.09 849 25.07 12.3 54.1 32 -4 24.8
03:35 1019 30.09 849 25.07 12.4 54.4 31 -4.2 24.4
03:40 1019 30.09 849 25.07 12.4 54.4 31 -4.2 24.4
03:45 1020 30.12 849 25.07 12.3 54.2 32 -3.9 25
03:50 1020 30.12 849 25.07 12 53.7 33 -3.9 25.1
03:55 1020 30.12 849 25.07 11.9 53.3 34 -3.4 25.9
04:00 1020 30.12 849 25.07 11.7 53.1 33 -4.1 24.6
04:05 1020 30.12 849 25.07 12 53.5 31 -4.6 23.8
04:10 1020 30.12 849 25.07 12.3 54.1 29 -5 23
04:15 1020 30.12 849 25.07 12.5 54.5 29 -4.9 23.2
04:20 1020 30.12 849 25.07 12.5 54.5 30 -4.7 23.5
04:25 1020 30.12 849 25.07 12.4 54.2 30 -4.6 23.7
04:30 1020 30.12 849 25.07 12.3 54.1 31 -4.5 23.9
04:35 1020 30.12 849 25.07 12.2 54 31 -4.6 23.8
04:40 1020 30.12 849 25.07 12.1 53.7 33 -3.8 25.1
04:45 1020 30.12 849 25.07 11.7 53.1 31 -4.8 23.4
04:50 1020 30.12 849 25.07 12 53.6 31 -4.6 23.7
04:55 1020 30.12 849 25.07 12 53.5 30 -4.9 23.2
05:00 1020 30.12 849 25.07 12.1 53.9 30 -5 23
05:05 1020 30.12 850 25.1 12.1 53.7 30 -5.1 22.9
05:10 1020 30.12 850 25.1 12.2 53.9 30 -5 23
05:15 1020 30.12 850 25.1 12.3 54.1 29 -5.2 22.6
05:20 1020 30.12 850 25.1 12.4 54.3 29 -4.9 23.2
05:25 1020 30.12 850 25.1 12.1 53.8 31 -4.5 23.9
05:30 1020 30.12 850 25.1 11.9 53.4 30 -5.1 22.9
05:35 1020 30.12 850 25.1 12.1 53.7 30 -5.1 22.8
05:40 1021 30.15 850 25.1 12 53.6 30 -4.9 23.2
05:45 1021 30.15 850 25.1 11.9 53.5 30 -5 22.9
05:50 1021 30.15 850 25.1 11.9 53.4 31 -4.7 23.6
05:55 1021 30.15 850 25.1 11.7 53 32 -4.5 23.9
06:00 1021 30.15 850 25.1 11.7 53 31 -4.7 23.6
06:05 1021 30.15 850 25.1 11.8 53.2 31 -4.7 23.6
06:10 1021 30.15 850 25.1 12.1 53.7 31 -4.6 23.7
06:15 1021 30.15 850 25.1 12.3 54.2 30 -4.6 23.8
06:20 1021 30.15 850 25.1 12.6 54.7 30 -4.6 23.7
06:25 1021 30.15 850 25.1 12.8 55.1 30 -4.4 24
06:30 1021 30.15 850 25.1 12.9 55.2 29 -4.4 24
06:35 1021 30.15 850 25.1 13 55.5 29 -4.6 23.7
06:40 1021 30.15 850 25.1 13.3 56 29 -4.1 24.6
06:45 1021 30.15 850 25.1 13.8 56.8 29 -4 24.8
06:50 1021 30.15 850 25.1 13.8 56.9 30 -3.4 25.8
06:55 1021 30.15 850 25.1 13.9 57 31 -3 26.5
07:00 1021 30.15 850 25.1 14.3 57.8 30 -2.8 27
07:05 1021 30.15 850 25.1 14.4 57.9 29 -3.3 26.1
07:10 1021 30.15 850 25.1 14.6 58.2 28 -3.5 25.7
07:15 1021 30.15 850 25.1 14.8 58.6 28 -3.5 25.7
07:20 1021 30.15 850 25.1 15.6 60 27 -3.3 26.1
07:25 1021 30.15 851 25.13 16.5 61.7 26 -3.2 26.2
07:30 1021 30.15 851 25.13 17.1 62.7 25 -3.2 26.3
07:35 1021 30.15 851 25.13 17.5 63.4 23 -3.5 25.6
07:40 1021 30.15 851 25.13 17.5 63.5 25 -2.7 27.1
07:45 1022 30.18 851 25.13 17.6 63.7 24 -3 26.6
07:50 1022 30.18 851 25.13 17.8 64 24 -2.8 27
07:55 1022 30.18 851 25.13 17.6 63.7 25 -2.8 27
08:00 1022 30.18 851 25.13 18 64.4 22 -3.7 25.4
08:05 1022 30.18 851 25.13 19 66.3 21 -3.6 25.5
08:10 1022 30.18 851 25.13 19.8 67.7 20 -3.9 25
08:15 1022 30.18 851 25.13 19.8 67.6 20 -3.9 25
08:20 1022 30.18 851 25.13 20.1 68.2 19 -4 24.8
08:25 1022 30.18 851 25.13 20.3 68.5 19 -3.9 25
08:30 1022 30.18 851 25.13 20.1 68.1 19 -3.9 24.9
08:35 1022 30.18 851 25.13 20.2 68.4 21 -2.7 27.2
08:40 1022 30.18 851 25.13 20.5 68.9 19 -3.4 25.8
08:45 1022 30.18 851 25.13 20.5 69 20 -2.9 26.8
08:50 1022 30.18 851 25.13 20.6 69.1 20 -2.8 27
08:55 1022 30.18 851 25.13 20.5 68.9 21 -2.7 27.1
09:00 1022 30.18 851 25.13 21 69.8 19 -3.6 25.5
09:05 1022 30.18 851 25.13 21.7 71.1 18 -3.7 25.4
09:10 1022 30.18 851 25.13 21.9 71.4 18 -3.5 25.7
09:15 1022 30.18 851 25.13 22.2 71.9 17 -3.5 25.7
09:20 1022 30.18 851 25.13 22.2 72 17 -3.8 25.2
09:25 1022 30.18 851 25.13 22.2 71.9 16 -4.3 24.3
09:30 1022 30.18 851 25.13 22.1 71.7 17 -3.9 25.1
09:35 1022 30.18 851 25.13 21.8 71.2 15 -6.2 20.9
09:40 1022 30.18 851 25.13 22.3 72.2 15 -5.5 22.1
09:45 1022 30.18 851 25.13 21.9 71.3 15 -5.5 22.1
09:50 1022 30.18 851 25.13 22 71.7 15 -5.3 22.5
09:55 1022 30.18 851 25.13 22 71.6 16 -4.9 23.1
10:00 1022 30.18 851 25.13 22.5 72.6 17 -3.8 25.2
10:05 1022 30.18 851 25.13 21.7 71 17 -4.1 24.6
10:10 1022 30.18 851 25.13 22.4 72.4 15 -5.4 22.2
10:15 1022 30.18 851 25.13 22.6 72.7 15 -5.5 22.1
10:20 1022 30.18 851 25.13 22.9 73.2 14 -5.6 21.8
10:25 1022 30.18 851 25.13 23.2 73.7 14 -6 21.2
10:30 1022 30.18 851 25.13 23.3 73.9 13 -6.3 20.6
10:35 1022 30.18 851 25.13 23.7 74.6 13 -5.8 21.6
10:40 1022 30.18 851 25.13 23.5 74.2 14 -5.8 21.6
10:45 1022 30.18 851 25.13 23.7 74.7 12 -6.7 20
10:50 1022 30.18 851 25.13 24 75.3 13 -6.1 21
10:55 1022 30.18 851 25.13 24.6 76.2 13 -5.4 22.3
11:00 1022 30.18 851 25.13 24 75.3 13 -5.9 21.4
11:05 1022 30.18 851 25.13 24.1 75.3 14 -5.3 22.5
11:10 1022 30.18 851 25.13 23.9 74.9 13 -6.5 20.3
11:15 1022 30.18 851 25.13 23.6 74.5 14 -5.2 22.7
11:20 1022 30.18 851 25.13 24.3 75.7 12 -6.3 20.6
11:25 1022 30.18 851 25.13 23.9 75 12 -7.1 19.2
11:30 1022 30.18 851 25.13 24.5 76.1 12 -6.9 19.7
11:35 1022 30.18 851 25.13 24.9 76.7 12 -5.7 21.7
11:40 1022 30.18 851 25.13 24 75.1 13 -5.9 21.4
11:45 1022 30.18 851 25.13 24.3 75.7 13 -5.7 21.8
11:50 1022 30.18 851 25.13 25.1 77.2 12 -5.6 21.9
11:55 1022 30.18 851 25.13 25.8 78.5 12 -5.8 21.6
12:00 1022 30.18 851 25.13 25.8 78.5 12 -5.2 22.7
12:05 1022 30.18 851 25.13 25.6 78 12 -5.5 22.2
12:10 1021 30.15 851 25.13 25.8 78.4 12 -5.7 21.7
12:15 1021 30.15 851 25.13 26.1 79 13 -4.6 23.7
12:20 1021 30.15 851 25.13 25.8 78.5 13 -4.7 23.6
12:25 1021 30.15 851 25.13 26.1 79 12 -4.9 23.2
12:30 1021 30.15 851 25.13 26.1 78.9 13 -4.5 23.9
12:35 1021 30.15 851 25.13 26.2 79.2 12 -5.3 22.4
12:40 1021 30.15 851 25.13 26.5 79.8 12 -4.8 23.4
12:45 1021 30.15 851 25.13 27 80.6 12 -4.5 23.9
12:50 1021 30.15 851 25.13 26.6 79.9 11 -5.4 22.2
12:55 1021 30.15 851 25.13 25.5 77.9 12 -5.4 22.3
13:00 1021 30.15 850 25.1 24.8 76.6 12 -6 21.3
13:05 1021 30.15 850 25.1 25.3 77.5 12 -5.5 22.1
13:10 1021 30.15 850 25.1 26.2 79.1 12 -5.3 22.4
13:15 1021 30.15 850 25.1 26.6 79.9 11 -5.9 21.4
13:20 1021 30.15 850 25.1 26 78.7 12 -5.1 22.7
13:25 1021 30.15 850 25.1 26.8 80.3 11 -5.4 22.3
13:30 1021 30.15 850 25.1 27.1 80.7 12 -4.7 23.6
13:35 1021 30.15 850 25.1 27.1 80.7 12 -4.3 24.2
13:40 1021 30.15 850 25.1 27.2 80.9 12 -4.2 24.4
13:45 1021 30.15 850 25.1 27.3 81.2 11 -4.9 23.2
13:50 1021 30.15 850 25.1 27.3 81.1 12 -3.8 25.1
13:55 1021 30.15 850 25.1 27 80.6 12 -4.3 24.2
14:00 1021 30.15 850 25.1 26.2 79.2 12 -5.3 22.5
14:05 1021 30.15 850 25.1 26.7 80 12 -4.7 23.5
14:10 1021 30.15 850 25.1 27.3 81.2 11 -4.9 23.2
14:15 1021 30.15 850 25.1 27.6 81.6 12 -4.6 23.8
14:20 1021 30.15 850 25.1 27.3 81.1 12 -4.3 24.2
14:25 1021 30.15 850 25.1 27.3 81.1 12 -4.4 24.1
14:30 1021 30.15 850 25.1 27.4 81.3 12 -3.8 25.2
14:35 1021 30.15 850 25.1 27.7 81.8 12 -4.6 23.8
14:40 1021 30.15 850 25.1 27.5 81.6 11 -4.8 23.4
14:45 1021 30.15 850 25.1 27.4 81.4 12 -4.7 23.5
14:50 1021 30.15 850 25.1 27.7 81.8 11 -5.3 22.4
14:55 1021 30.15 850 25.1 27.9 82.1 11 -4.9 23.1
15:00 1021 30.15 850 25.1 28.2 82.7 11 -5.1 22.9
15:05 1020 30.12 850 25.1 28 82.5 13 -3.1 26.5
15:10 1020 30.12 850 25.1 27.4 81.2 10 -6.1 21.1
15:15 1020 30.12 850 25.1 27.3 81.1 11 -5.6 21.9
15:20 1020 30.12 850 25.1 27.8 82 10 -6.6 20
15:25 1020 30.12 850 25.1 27.2 81 11 -5.8 21.6
15:30 1020 30.12 850 25.1 27.7 81.8 10 -6 21.2
15:35 1020 30.12 850 25.1 28 82.5 11 -5.4 22.3
15:40 1020 30.12 850 25.1 28.2 82.8 10 -5.7 21.8
15:45 1020 30.12 850 25.1 28.3 83 9 -7 19.4
15:50 1020 30.12 850 25.1 27.7 81.8 10 -6.3 20.7
15:55 1020 30.12 849 25.07 28 82.4 10 -5.8 21.5
16:00 1020 30.12 849 25.07 27.8 82.1 10 -5.8 21.5
16:05 1020 30.12 849 25.07 27.4 81.3 10 -6.5 20.3
16:10 1020 30.12 849 25.07 27.3 81.1 11 -6 21.2
16:15 1020 30.12 849 25.07 27.6 81.7 10 -6.3 20.6
16:20 1020 30.12 849 25.07 27.6 81.6 10 -6 21.2
16:25 1020 30.12 849 25.07 27.6 81.7 10 -6.6 20.2
16:30 1020 30.12 849 25.07 27.4 81.3 10 -6.8 19.7
16:35 1020 30.12 849 25.07 27.8 82.1 10 -6 21.1
16:40 1020 30.12 849 25.07 27.5 81.4 10 -7 19.3
16:45 1020 30.12 849 25.07 27.3 81.1 10 -6.3 20.6
16:50 1020 30.12 849 25.07 27.9 82.2 10 -6.9 19.5
16:55 1020 30.12 849 25.07 28 82.4 10 -6.6 20.1
17:00 1020 30.12 849 25.07 28.2 82.7 10 -6.6 20.1
17:05 1020 30.12 849 25.07 28.3 82.9 10 -5.4 22.2
17:10 1020 30.12 849 25.07 28.1 82.6 10 -6.7 20
17:15 1020 30.12 849 25.07 27.4 81.2 11 -5.9 21.4
17:20 1020 30.12 849 25.07 27.6 81.6 10 -6.1 21
17:25 1020 30.12 849 25.07 27.8 82.1 9 -7.3 18.9
17:30 1020 30.12 849 25.07 27.3 81.1 10 -6.1 21
17:35 1020 30.12 849 25.07 27.5 81.6 10 -6 21.2
17:40 1020 30.12 849 25.07 28.1 82.6 10 -5.6 21.8
17:45 1020 30.12 849 25.07 28.2 82.7 11 -5.2 22.6
17:50 1020 30.12 849 25.07 27.7 81.8 10 -6.7 20
17:55 1020 30.12 849 25.07 27.6 81.6 10 -6.9 19.7
18:00 1020 30.12 849 25.07 27.7 81.8 9 -7.2 19.1
18:05 1020 30.12 849 25.07 27.8 82 10 -6.3 20.6
18:10 1020 30.12 849 25.07 27.6 81.7 10 -6 21.2
18:15 1020 30.12 849 25.07 27.2 80.9 10 -7.4 18.6
18:20 1020 30.12 849 25.07 26.9 80.4 10 -7.4 18.6
18:25 1020 30.12 849 25.07 26.7 80.1 10 -6.6 20.1
18:30 1020 30.12 849 25.07 26.7 80.1 11 -6.1 21.1
18:35 1020 30.12 849 25.07 26.6 80 11 -5.5 22
18:40 1020 30.12 849 25.07 26.6 79.9 10 -6.8 19.7
18:45 1020 30.12 849 25.07 26.5 79.7 13 -4.3 24.2
18:50 1020 30.12 849 25.07 26.3 79.3 13 -4.4 24
18:55 1020 30.12 849 25.07 26.2 79.1 12 -5.1 22.8
19:00 1020 30.12 849 25.07 26.1 78.9 13 -4.6 23.8
19:05 1020 30.12 849 25.07 25.8 78.5 15 -2.8 26.9
19:10 1020 30.12 849 25.07 25.7 78.2 15 -2.2 28
19:15 1020 30.12 849 25.07 25.5 77.8 14 -3.9 24.9
19:20 1020 30.12 849 25.07 25.3 77.6 13 -4.4 24.1
19:25 1020 30.12 849 25.07 25.3 77.5 13 -4.6 23.8
19:30 1020 30.12 849 25.07 25.1 77.2 18 -0.5 31.1
19:35 1020 30.12 849 25.07 24.6 76.3 20 0.1 32.1
19:40 1020 30.12 849 25.07 24 75.1 19 -0.6 30.9
19:45 1020 30.12 849 25.07 23.2 73.8 23 1.3 34.4
19:50 1020 30.12 850 25.1 22.4 72.2 25 1.8 35.2
19:55 1020 30.12 850 25.1 22 71.6 23 0.2 32.4
20:00 1020 30.12 850 25.1 22 71.5 24 0.7 33.3
20:05 1020 30.12 850 25.1 21.7 71 29 3 37.3
20:10 1020 30.12 850 25.1 20.8 69.4 27 1.4 34.5
20:15 1020 30.12 850 25.1 20.4 68.8 21 -2.4 27.6
20:20 1021 30.15 850 25.1 20.5 69 23 -1 30.1
20:25 1021 30.15 850 25.1 20.2 68.4 22 -1.8 28.8
20:30 1021 30.15 850 25.1 20 68.1 21 -2.7 27.1
20:35 1021 30.15 850 25.1 20.1 68.1 20 -3.7 25.4
20:40 1021 30.15 850 25.1 20.3 68.6 18 -4.8 23.4
20:45 1021 30.15 850 25.1 20.6 69.1 19 -4 24.8
20:50 1021 30.15 850 25.1 20.4 68.6 18 -4.8 23.3
20:55 1021 30.15 850 25.1 20.6 69.1 18 -4.5 23.9
21:00 1021 30.15 850 25.1 20.4 68.7 17 -5.1 22.9
21:05 1021 30.15 850 25.1 20.7 69.3 15 -6.8 19.8
21:10 1021 30.15 850 25.1 21.3 70.3 15 -6.5 20.3
21:15 1021 30.15 850 25.1 21.5 70.7 14 -6.6 20.2
21:20 1021 30.15 850 25.1 21.6 71 14 -7 19.3
21:25 1021 30.15 850 25.1 21.8 71.3 14 -6.8 19.7
21:30 1021 30.15 850 25.1 21.8 71.3 14 -6.8 19.8
21:35 1021 30.15 850 25.1 21.7 71.1 14 -6.8 19.8
21:40 1021 30.15 850 25.1 21.6 70.9 14 -6.5 20.3
21:45 1021 30.15 850 25.1 21.6 70.8 15 -6.3 20.6
21:50 1021 30.15 850 25.1 21.5 70.8 15 -6.2 20.8
21:55 1021 30.15 850 25.1 21.6 70.9 15 -5.9 21.4
22:00 1021 30.15 850 25.1 21.5 70.7 15 -5.8 21.6
22:05 1021 30.15 850 25.1 21.4 70.4 16 -5.4 22.3
22:10 1021 30.15 850 25.1 21.1 70.1 17 -4.7 23.6
22:15 1021 30.15 850 25.1 21 69.9 17 -4.8 23.4
22:20 1021 30.15 850 25.1 21.1 70 17 -4.8 23.4
22:25 1021 30.15 850 25.1 21.1 70 17 -4.7 23.6
22:30 1021 30.15 850 25.1 21.1 70 17 -4.5 23.9
22:35 1021 30.15 850 25.1 21.1 70.1 17 -4.5 23.9
22:40 1021 30.15 850 25.1 21.1 70 17 -4.3 24.2
22:45 1021 30.15 850 25.1 21.2 70.1 18 -4 24.8
22:50 1021 30.15 850 25.1 21.1 69.9 18 -3.8 25.2
22:55 1021 30.15 850 25.1 21 69.8 19 -3.3 26.1
23:00 1021 30.15 850 25.1 21 69.7 19 -3.1 26.5
23:05 1021 30.15 850 25.1 20.9 69.6 20 -2.6 27.4
23:10 1021 30.15 850 25.1 20.8 69.4 21 -2.2 28
23:15 1021 30.15 850 25.1 20.7 69.3 22 -1.7 29
23:20 1021 30.15 850 25.1 20.6 69.2 23 -1.2 29.8
23:25 1021 30.15 850 25.1 20.4 68.8 24 -0.9 30.3
23:30 1021 30.15 850 25.1 20.4 68.8 24 -0.5 31.1
23:35 1021 30.15 850 25.1 20.3 68.6 25 -0.1 31.8
23:40 1021 30.15 850 25.1 20.3 68.5 26 0.3 32.5
23:45 1021 30.15 850 25.1 20.3 68.5 26 0.5 32.9
23:50 1021 30.15 850 25.1 20.1 68.3 27 0.9 33.6
23:55 1021 30.15 850 25.1 20.1 68.3 28 1.1 34
24:00 1021 30.15 850 25.1 20.1 68.1 28 1.3 34.4